PABI/DJN METAR and TAF weather

Enter ICAO airport designator
Station Type Date Time Source
PABI METAR 2021/01/16 01:53 UTC NOAA

PABI 160153Z 28003KT 10SM SCT065 SCT120 SCT160 BKN200 M07/M11 A2943 RMK AO2 SLP998 T10721111


Station Type Date Time Source
PABI Decoded METAR 2021/01/16 01:53 UTC NOAA

ALLEN ARMY AIRFIELD, AK, United States (PABI) 64-00N 145-43W 391M
Jan 15, 2021 - 08:53 PM EST / 2021.01.16 0153 UTC
Wind: from the W (280 degrees) at 3 MPH (3 KT):0
Visibility: 10 mile(s):0
Sky conditions: mostly cloudy
Temperature: 19.0 F (-7.2 C)
Dew Point: 12.0 F (-11.1 C)
Relative Humidity: 73%
Pressure (altimeter): 29.43 in. Hg (996 hPa)
ob: PABI 160153Z 28003KT 10SM SCT065 SCT120 SCT160 BKN200 M07/M11 A2943 RMK AO2 SLP998 T10721111
cycle: 2

Station Type Date Time Source
PABI TAF 2021/01/15 23:43 UTC NOAA

TAF
AMD PABI 152340Z 1523/1704 12012KT 9999 SCT065 BKN100 QNH2920INS
TEMPO 1523/1607 12025G35KT 530005
BECMG 1606/1607 12010KT 9999 SKC QNH2955INS
TEMPO 1607/1616 12025G35KT 530005
BECMG 1621/1622 10025G35KT 9999 SCT180 530005 QNH2940INS TXM05/1523Z TNM19/1613Z FOR MIL USE ONLY

Example: see airport list